Time;durP1;ratioP1;P1;durP2;ratioP2;P2;SDS_P1;SDS_P2;PMS_P1;PMS_P2;Temp;Humidity;BMP_temperature;BMP_pressure;BME280_temperature;BME280_humidity;BME280_pressure;Samples;Min_cycle;Max_cycle;Signal;HPM_P1;HPM_P2
2021/11/02 00:00:40;;;;;;;4.57;1.58;;;22.50;55.90;;;;;;5222729;28;20045;-69
2021/11/02 00:03:13;;;;;;;3.17;1.65;;;22.50;56.00;;;;;;5221218;28;20041;-68
2021/11/02 00:05:45;;;;;;;4.97;1.92;;;22.50;56.00;;;;;;5227445;28;20056;-69
2021/11/02 00:08:17;;;;;;;7.05;1.88;;;22.50;56.00;;;;;;5224324;28;20059;-69
2021/11/02 00:10:50;;;;;;;4.18;1.60;;;22.50;56.00;;;;;;5221534;28;20520;-69
2021/11/02 00:13:25;;;;;;;8.23;1.50;;;22.50;56.10;;;;;;5222840;28;20052;-69
2021/11/02 00:16:05;;;;;;;5.43;1.20;;;22.50;56.00;;;;;;5222802;28;20928;-69
2021/11/02 00:18:43;;;;;;;3.22;1.10;;;22.40;56.00;;;;;;5219108;28;20425;-69
2021/11/02 00:21:16;;;;;;;4.53;1.20;;;22.50;56.00;;;;;;5225275;28;20067;-68
2021/11/02 00:23:56;;;;;;;6.60;1.50;;;22.50;55.90;;;;;;5224163;28;20053;-69
2021/11/02 00:26:29;;;;;;;6.00;1.27;;;22.40;55.90;;;;;;5227999;28;20493;-69
2021/11/02 00:29:01;;;;;;;5.80;1.45;;;22.40;55.90;;;;;;5225658;28;20532;-69
2021/11/02 00:31:35;;;;;;;8.50;1.80;;;22.40;56.10;;;;;;5240341;28;20044;-68
2021/11/02 00:34:07;;;;;;;7.80;1.88;;;22.40;56.20;;;;;;5226932;28;20507;-69
2021/11/02 00:36:40;;;;;;;4.45;1.45;;;22.40;56.00;;;;;;5227259;28;20052;-69
2021/11/02 00:39:12;;;;;;;6.18;1.52;;;22.40;56.00;;;;;;5229233;28;20421;-68
2021/11/02 00:41:45;;;;;;;6.53;1.90;;;22.40;56.00;;;;;;5225998;28;20068;-68
2021/11/02 00:44:18;;;;;;;8.60;1.65;;;22.40;55.90;;;;;;5224616;28;20051;-69
2021/11/02 00:46:52;;;;;;;;;;;22.40;55.90;;;;;;5239390;28;20063;-67
2021/11/02 00:49:25;;;;;;;8.10;1.50;;;22.40;56.00;;;;;;5226053;28;19924;-69
2021/11/02 00:52:00;;;;;;;5.22;1.33;;;22.40;56.00;;;;;;5228308;28;20802;-69
2021/11/02 00:54:32;;;;;;;3.72;1.35;;;22.40;55.90;;;;;;5226381;28;20665;-69
2021/11/02 00:57:05;;;;;;;7.40;1.50;;;22.30;55.90;;;;;;5226359;28;20507;-67
2021/11/02 00:59:37;;;;;;;3.72;1.02;;;22.30;55.80;;;;;;5228049;28;20451;-69
2021/11/02 01:02:12;;;;;;;3.78;0.93;;;22.30;55.80;;;;;;5235840;28;20416;-68
2021/11/02 01:04:46;;;;;;;3.55;1.13;;;22.30;55.80;;;;;;5225364;28;20060;-68
2021/11/02 01:07:19;;;;;;;1.85;0.80;;;22.30;55.70;;;;;;5226348;28;20717;-69
2021/11/02 01:09:52;;;;;;;3.47;1.05;;;22.30;55.70;;;;;;5222366;28;20056;-68
2021/11/02 01:12:24;;;;;;;4.70;1.05;;;22.30;55.70;;;;;;5227012;28;20416;-69
2021/11/02 01:14:57;;;;;;;3.13;1.20;;;22.30;55.70;;;;;;5239675;28;20052;-69
2021/11/02 01:17:29;;;;;;;3.25;0.88;;;22.30;55.70;;;;;;5239258;28;20067;-69
2021/11/02 01:20:05;;;;;;;2.40;0.85;;;22.30;55.60;;;;;;5227795;28;20419;-69
2021/11/02 01:22:39;;;;;;;2.50;0.90;;;22.30;55.60;;;;;;5225071;28;20048;-68
2021/11/02 01:25:14;;;;;;;1.83;0.93;;;22.30;55.60;;;;;;5242472;28;20580;-68
2021/11/02 01:27:47;;;;;;;3.67;1.20;;;22.30;55.70;;;;;;5227822;28;20075;-68
2021/11/02 01:30:23;;;;;;;2.70;1.13;;;22.30;55.70;;;;;;5241416;28;20052;-69
2021/11/02 01:32:56;;;;;;;1.42;0.93;;;22.30;55.70;;;;;;5239863;28;20045;-69
2021/11/02 01:35:29;;;;;;;4.85;1.10;;;22.30;55.70;;;;;;5221142;28;20044;-68
2021/11/02 01:38:06;;;;;;;2.65;1.20;;;22.30;55.80;;;;;;5223461;28;20036;-68
2021/11/02 01:40:38;;;;;;;3.05;1.10;;;22.30;55.70;;;;;;5238136;28;20044;-69
2021/11/02 01:43:12;;;;;;;5.25;1.00;;;22.20;55.80;;;;;;5220816;28;20504;-68
2021/11/02 01:45:46;;;;;;;6.25;1.02;;;22.20;55.90;;;;;;5236452;28;20084;-68
2021/11/02 01:48:24;;;;;;;2.22;0.90;;;22.20;55.90;;;;;;5238037;28;20037;-68
2021/11/02 01:50:59;;;;;;;1.00;0.75;;;22.30;55.90;;;;;;5218291;28;20036;-68
2021/11/02 01:53:35;;;;;;;2.00;0.70;;;22.20;55.90;;;;;;5242723;28;20041;-68
2021/11/02 01:56:10;;;;;;;2.17;0.70;;;22.30;55.90;;;;;;5228073;28;20075;-68
2021/11/02 01:58:46;;;;;;;2.67;0.77;;;22.20;55.90;;;;;;5225088;28;20049;-68
2021/11/02 02:01:51;;;;;;;1.25;0.73;;;22.30;55.90;;;;;;5207751;28;20043;-69
2021/11/02 02:04:47;;;;;;;2.38;1.00;;;22.30;55.80;;;;;;5226442;28;20064;-68
2021/11/02 02:07:37;;;;;;;1.92;0.90;;;22.30;55.90;;;;;;5238653;28;20036;-69
2021/11/02 02:10:27;;;;;;;1.45;0.88;;;22.30;55.80;;;;;;5234165;28;20053;-69
2021/11/02 02:13:20;;;;;;;4.68;1.50;;;22.20;55.80;;;;;;5210102;28;20432;-69
2021/11/02 02:15:53;;;;;;;3.97;0.88;;;22.20;55.90;;;;;;5226077;28;20049;-70
2021/11/02 02:18:38;;;;;;;1.45;0.68;;;22.20;55.80;;;;;;5224148;28;20044;-69
2021/11/02 02:21:30;;;;;;;4.30;0.75;;;22.20;55.50;;;;;;5218510;28;20041;-69
2021/11/02 02:24:34;;;;;;;2.30;0.90;;;22.20;55.60;;;;;;5235748;28;20053;-69
2021/11/02 02:27:40;;;;;;;2.35;0.95;;;22.20;55.60;;;;;;5241459;28;20075;-69
2021/11/02 02:30:16;;;;;;;1.67;0.68;;;22.20;55.50;;;;;;5238105;28;20056;-67
2021/11/02 02:32:52;;;;;;;1.58;0.90;;;22.20;55.50;;;;;;5238174;28;20044;-69
2021/11/02 02:35:27;;;;;;;2.45;0.80;;;22.20;55.50;;;;;;5242101;28;20890;-69
2021/11/02 02:38:02;;;;;;;0.95;0.60;;;22.20;55.50;;;;;;5221364;28;20048;-69
2021/11/02 02:40:37;;;;;;;1.40;0.60;;;22.20;55.50;;;;;;5221064;28;20049;-69
2021/11/02 02:43:10;;;;;;;3.55;0.70;;;22.20;55.40;;;;;;5222224;28;20048;-69
2021/11/02 02:45:50;;;;;;;2.33;0.70;;;22.20;55.40;;;;;;5220413;28;20500;-67
2021/11/02 02:48:27;;;;;;;1.17;0.73;;;22.20;55.40;;;;;;5221323;28;20040;-68
2021/11/02 02:51:01;;;;;;;1.35;0.60;;;22.20;55.30;;;;;;5219352;28;20051;-69
2021/11/02 02:53:36;;;;;;;1.10;0.60;;;22.20;55.40;;;;;;5236064;28;20059;-69
2021/11/02 02:56:10;;;;;;;0.80;0.68;;;22.20;55.40;;;;;;5225257;28;20049;-69
2021/11/02 02:58:46;;;;;;;2.42;0.82;;;22.20;55.40;;;;;;5233094;28;20036;-70
2021/11/02 03:01:24;;;;;;;1.40;0.80;;;22.20;55.30;;;;;;5238573;28;20476;-68
2021/11/02 03:04:02;;;;;;;2.05;0.65;;;22.20;55.20;;;;;;5224959;28;20072;-69
2021/11/02 03:06:36;;;;;;;0.90;0.70;;;22.20;55.30;;;;;;5222036;28;20052;-69
2021/11/02 03:09:10;;;;;;;2.20;0.80;;;22.10;55.30;;;;;;5198728;28;20071;-69
2021/11/02 03:11:44;;;;;;;1.63;0.70;;;22.10;55.30;;;;;;5220016;28;20048;-69
2021/11/02 03:14:33;;;;;;;1.73;0.68;;;22.20;55.30;;;;;;5217472;28;20049;-68
2021/11/02 03:17:08;;;;;;;3.03;1.15;;;22.20;55.40;;;;;;5206038;28;20051;-68
2021/11/02 03:20:27;;;;;;;2.28;0.60;;;22.10;55.40;;;;;;5242480;28;20045;-68
2021/11/02 03:49:11;;;;;;;1.48;0.60;;;22.10;55.30;;;;;;5240781;28;20056;-69
2021/11/02 03:58:23;;;;;;;3.28;0.70;;;22.10;55.20;;;;;;5243485;28;20045;-69
2021/11/02 04:00:41;;;;;;;2.15;0.52;;;22.10;55.10;;;;;;5229678;28;20040;-68
2021/11/02 04:26:56;;;;;;;0.98;0.68;;;22.10;55.50;;;;;;5241533;28;20051;-67
2021/11/02 04:33:01;;;;;;;1.35;0.50;;;22.10;55.70;;;;;;5226103;28;20052;-68
2021/11/02 04:35:52;;;;;;;2.75;0.75;;;22.10;55.70;;;;;;5223416;28;20040;-68
2021/11/02 05:47:16;;;;;;;5.25;0.90;;;22.30;56.90;;;;;;5225144;28;20053;-69
2021/11/02 05:50:15;;;;;;;2.55;1.17;;;22.30;56.80;;;;;;5209876;28;20073;-67
2021/11/02 05:58:21;;;;;;;2.60;0.93;;;22.30;56.80;;;;;;5211923;28;20055;-68
2021/11/02 06:03:39;;;;;;;7.65;0.95;;;22.40;56.80;;;;;;5234037;28;20045;-69
2021/11/02 06:29:41;;;;;;;1.50;0.60;;;22.50;56.70;;;;;;5224009;28;20060;-69
2021/11/02 06:32:25;;;;;;;6.63;0.90;;;22.50;56.70;;;;;;5225683;28;20060;-69
2021/11/02 06:58:27;;;;;;;5.25;0.80;;;22.60;56.90;;;;;;5227642;28;20048;-68
2021/11/02 07:18:17;;;;;;;5.55;1.55;;;22.60;57.00;;;;;;5176625;28;20045;-69
2021/11/02 07:21:00;;;;;;;5.05;1.30;;;22.60;57.00;;;;;;5213344;28;20049;-69
2021/11/02 08:47:36;;;;;;;6.03;1.52;;;22.70;57.70;;;;;;5218479;28;20045;-69
2021/11/02 08:50:11;;;;;;;8.23;1.40;;;22.70;57.70;;;;;;5221710;28;20051;-68
2021/11/02 08:52:50;;;;;;;11.32;1.30;;;22.70;57.80;;;;;;5223165;28;20053;-69
2021/11/02 08:55:23;;;;;;;8.68;1.33;;;22.70;57.80;;;;;;5223598;28;20056;-69
2021/11/02 08:57:56;;;;;;;6.80;2.00;;;22.70;57.80;;;;;;5228101;28;20048;-69
2021/11/02 09:00:29;;;;;;;;;;;22.70;57.70;;;;;;5231250;28;20040;-69
2021/11/02 09:03:20;;;;;;;6.35;1.33;;;22.70;57.60;;;;;;5241373;28;19935;-69
2021/11/02 09:05:59;;;;;;;8.68;1.90;;;22.70;57.50;;;;;;5227856;28;20052;-69
2021/11/02 09:08:41;;;;;;;14.50;1.42;;;22.70;57.50;;;;;;5246462;28;20049;-69
2021/11/02 09:11:17;;;;;;;4.50;1.50;;;22.70;57.40;;;;;;5227638;28;20045;-69
2021/11/02 09:13:52;;;;;;;4.20;1.10;;;22.70;57.40;;;;;;5221860;28;20056;-69
2021/11/02 09:16:26;;;;;;;5.03;1.23;;;22.70;57.30;;;;;;5216701;28;20286;-69
2021/11/02 09:18:58;;;;;;;7.50;1.00;;;22.70;57.30;;;;;;5213945;28;20069;-69
2021/11/02 09:21:31;;;;;;;7.75;1.27;;;22.70;57.20;;;;;;5224510;28;20060;-69
2021/11/02 09:24:04;;;;;;;3.92;1.63;;;22.70;57.20;;;;;;5224686;28;20048;-69
2021/11/02 09:26:40;;;;;;;3.85;1.15;;;22.70;57.30;;;;;;5227922;28;20048;-70
2021/11/02 09:29:13;;;;;;;12.68;1.77;;;22.70;57.20;;;;;;5223855;28;20045;-70
2021/11/02 09:31:46;;;;;;;4.20;1.00;;;22.70;57.20;;;;;;5221228;28;20044;-69
2021/11/02 09:34:19;;;;;;;5.70;0.93;;;22.70;57.20;;;;;;5228526;28;20424;-69
2021/11/02 09:37:03;;;;;;;5.38;1.08;;;22.80;57.20;;;;;;5225870;28;20959;-69
2021/11/02 09:39:41;;;;;;;7.80;1.45;;;22.80;57.20;;;;;;5227779;28;20048;-69
2021/11/02 09:42:37;;;;;;;5.20;0.95;;;22.70;57.10;;;;;;5226911;28;20064;-70
2021/11/02 09:45:54;;;;;;;3.22;1.30;;;22.70;57.20;;;;;;5227639;28;20044;-70
2021/11/02 09:48:38;;;;;;;5.50;1.27;;;22.70;57.10;;;;;;5225107;28;20405;-69
2021/11/02 09:51:23;;;;;;;4.68;0.82;;;22.70;57.10;;;;;;5223290;28;20045;-68
2021/11/02 09:54:22;;;;;;;5.15;1.05;;;22.70;57.20;;;;;;5224680;28;20044;-69
2021/11/02 09:57:15;;;;;;;3.65;0.90;;;22.70;57.10;;;;;;5222433;28;20041;-70
2021/11/02 10:00:09;;;;;;;3.22;1.38;;;22.70;57.10;;;;;;5223018;28;20118;-69
2021/11/02 10:03:26;;;;;;;3.88;0.90;;;22.70;57.00;;;;;;5224572;28;20509;-70
2021/11/02 10:06:32;;;;;;;5.05;1.15;;;22.70;56.90;;;;;;5227640;28;20059;-70
2021/11/02 10:09:17;;;;;;;5.85;0.90;;;22.70;56.90;;;;;;5228476;28;20057;-69
2021/11/02 10:12:14;;;;;;;9.38;1.38;;;22.70;57.00;;;;;;5221869;28;20064;-69
2021/11/02 10:15:15;;;;;;;6.80;0.93;;;22.70;56.80;;;;;;5215859;28;20049;-70
2021/11/02 10:18:09;;;;;;;4.68;0.98;;;22.70;56.90;;;;;;5217865;28;20521;-70
2021/11/02 10:21:00;;;;;;;10.07;1.02;;;22.70;56.90;;;;;;5208841;28;20049;-69
2021/11/02 10:23:32;;;;;;;7.85;1.25;;;22.70;57.00;;;;;;5194863;28;20052;-73
2021/11/02 10:26:38;;;;;;;10.88;1.30;;;22.70;57.20;;;;;;5193964;28;20052;-72
2021/11/02 10:29:22;;;;;;;5.05;1.27;;;22.70;57.40;;;;;;5190784;28;20051;-73
2021/11/02 10:32:06;;;;;;;9.52;1.73;;;22.70;57.70;;;;;;5188675;28;20045;-74
2021/11/02 10:34:42;;;;;;;2.90;0.90;;;22.80;57.50;;;;;;5194312;28;20670;-73
2021/11/02 10:38:07;;;;;;;6.28;1.00;;;22.90;57.40;;;;;;5190754;28;20079;-74
2021/11/02 10:40:57;;;;;;;10.20;0.90;;;22.90;57.30;;;;;;5210883;28;20552;-73
2021/11/02 10:43:47;;;;;;;3.95;1.05;;;23.00;57.20;;;;;;5188865;28;20091;-73
2021/11/02 10:46:29;;;;;;;5.15;0.93;;;23.10;57.30;;;;;;5188237;28;20045;-72
2021/11/02 10:49:28;;;;;;;7.72;1.10;;;23.10;57.30;;;;;;5171795;28;20061;-74
2021/11/02 10:52:11;;;;;;;4.03;0.70;;;23.20;57.20;;;;;;5195699;28;20044;-71
2021/11/02 10:55:10;;;;;;;8.93;1.05;;;23.20;56.90;;;;;;5206471;28;20052;-72
2021/11/02 10:58:01;;;;;;;4.32;0.90;;;23.30;56.80;;;;;;5185464;28;20044;-73
2021/11/02 11:00:34;;;;;;;4.40;0.82;;;23.30;56.90;;;;;;5205097;28;20049;-73
2021/11/02 11:03:10;;;;;;;4.25;0.88;;;23.40;56.80;;;;;;5194424;28;21835;-76
2021/11/02 11:05:46;;;;;;;5.53;1.00;;;23.40;56.70;;;;;;5191851;28;20049;-73
2021/11/02 11:08:24;;;;;;;4.03;1.13;;;23.50;56.90;;;;;;5192299;28;20413;-74
2021/11/02 11:10:59;;;;;;;6.25;0.90;;;23.50;56.90;;;;;;5185444;28;20602;-73
2021/11/02 11:13:32;;;;;;;8.32;0.88;;;23.50;56.90;;;;;;5194635;28;20516;-74
2021/11/02 11:16:09;;;;;;;;;;;23.50;56.90;;;;;;5197401;28;20044;-74
2021/11/02 11:19:02;;;;;;;3.05;0.80;;;23.50;56.90;;;;;;5198213;28;19931;-73
2021/11/02 11:21:35;;;;;;;6.68;1.10;;;23.50;56.80;;;;;;5158381;28;20053;-72
2021/11/02 11:24:13;;;;;;;;;;;23.50;56.90;;;;;;5199603;28;20052;-71
2021/11/02 11:26:51;;;;;;;8.75;0.77;;;23.50;56.80;;;;;;5193290;28;19925;-71
2021/11/02 11:29:25;;;;;;;7.78;0.75;;;23.50;56.30;;;;;;5194374;28;21058;-71
2021/11/02 11:31:59;;;;;;;4.82;0.95;;;23.60;56.10;;;;;;5190792;28;20036;-70
2021/11/02 11:34:34;;;;;;;1.77;0.50;;;23.50;55.80;;;;;;5191831;28;20556;-70
2021/11/02 11:37:12;;;;;;;2.60;0.80;;;23.60;55.60;;;;;;5198362;28;20059;-70
2021/11/02 11:39:49;;;;;;;4.68;1.25;;;23.50;55.10;;;;;;5191842;28;20048;-70
2021/11/02 11:42:25;;;;;;;2.83;0.80;;;23.60;54.70;;;;;;5193203;28;20048;-71
2021/11/02 11:45:12;;;;;;;3.25;0.70;;;23.60;54.40;;;;;;5187574;28;20410;-73
2021/11/02 11:47:45;;;;;;;15.27;1.27;;;23.60;54.50;;;;;;5196778;28;20584;-73
2021/11/02 11:50:25;;;;;;;9.30;1.10;;;23.60;55.00;;;;;;5197943;28;20087;-73
2021/11/02 11:53:03;;;;;;;10.52;1.73;;;23.60;55.10;;;;;;5197946;28;20064;-72
2021/11/02 11:55:40;;;;;;;13.45;1.70;;;23.60;55.30;;;;;;5199565;28;20444;-73
2021/11/02 11:58:17;;;;;;;8.00;1.17;;;23.60;55.40;;;;;;5203307;28;20076;-73
2021/11/02 12:00:51;;;;;;;5.80;1.00;;;23.60;55.50;;;;;;5196973;28;20552;-71
2021/11/02 12:03:51;;;;;;;9.77;1.50;;;23.60;55.50;;;;;;5167087;28;20053;-73
2021/11/02 12:06:33;;;;;;;9.05;0.98;;;23.60;55.70;;;;;;5199337;28;20056;-74
2021/11/02 12:09:14;;;;;;;4.53;1.08;;;23.70;55.80;;;;;;5197572;28;20955;-73
2021/11/02 12:11:48;;;;;;;4.07;0.88;;;23.70;55.80;;;;;;5198919;28;20052;-72
2021/11/02 12:14:25;;;;;;;4.47;1.23;;;23.70;55.80;;;;;;5203888;28;20055;-72
2021/11/02 12:16:59;;;;;;;4.45;1.05;;;23.70;55.80;;;;;;5198171;28;20045;-71
2021/11/02 12:19:44;;;;;;;9.18;1.10;;;23.70;55.80;;;;;;5190324;28;20053;-71
2021/11/02 12:22:25;;;;;;;4.45;0.65;;;23.70;56.50;;;;;;5195765;28;20414;-72
2021/11/02 12:25:06;;;;;;;12.43;0.90;;;23.70;56.40;;;;;;5203382;28;20047;-72
2021/11/02 12:27:41;;;;;;;2.15;0.75;;;23.70;55.10;;;;;;5210050;28;20041;-72
2021/11/02 12:30:17;;;;;;;3.40;1.00;;;23.70;54.60;;;;;;5208431;28;20060;-72
2021/11/02 12:32:56;;;;;;;5.55;1.10;;;23.70;54.10;;;;;;5204396;28;20044;-72
2021/11/02 12:35:34;;;;;;;2.35;0.80;;;23.70;53.80;;;;;;5193913;28;20508;-72
2021/11/02 12:38:08;;;;;;;3.42;0.80;;;23.70;53.90;;;;;;5196542;28;20052;-72
2021/11/02 12:40:42;;;;;;;10.35;0.80;;;23.70;54.00;;;;;;5207982;28;20045;-72
2021/11/02 12:43:30;;;;;;;2.03;0.57;;;23.70;54.00;;;;;;5206492;28;20048;-71
2021/11/02 12:46:05;;;;;;;3.40;0.80;;;23.70;54.00;;;;;;5201127;28;20068;-73
2021/11/02 12:48:39;;;;;;;1.92;0.65;;;23.70;54.00;;;;;;5209145;28;20531;-71
2021/11/02 12:51:21;;;;;;;3.22;0.77;;;23.70;54.00;;;;;;5209215;28;20776;-72
2021/11/02 12:53:57;;;;;;;2.88;0.60;;;23.70;54.00;;;;;;5209079;28;20052;-72
2021/11/02 12:56:33;;;;;;;4.40;0.88;;;23.70;54.00;;;;;;5205749;28;20063;-72
2021/11/02 12:59:19;;;;;;;3.22;0.70;;;23.70;54.60;;;;;;5206425;28;20052;-72
2021/11/02 13:01:54;;;;;;;1.48;0.77;;;23.70;53.90;;;;;;5208325;28;20045;-72
2021/11/02 13:04:35;;;;;;;3.45;0.70;;;23.70;54.60;;;;;;5207211;28;20051;-72
2021/11/02 13:07:12;;;;;;;2.75;0.63;;;23.70;54.00;;;;;;5207822;28;20071;-71
2021/11/02 13:09:50;;;;;;;5.40;0.80;;;23.70;54.00;;;;;;5207387;28;20059;-71
2021/11/02 13:12:24;;;;;;;1.80;0.70;;;23.60;54.00;;;;;;5193808;28;20057;-71
2021/11/02 13:15:03;;;;;;;2.53;0.68;;;23.70;54.00;;;;;;5202521;28;20064;-72
2021/11/02 13:17:40;;;;;;;1.77;0.60;;;23.60;53.70;;;;;;5206476;28;20052;-72
2021/11/02 13:20:28;;;;;;;3.35;0.80;;;23.60;53.60;;;;;;5205494;28;20049;-72
2021/11/02 13:23:02;;;;;;;1.35;0.80;;;23.70;53.60;;;;;;5206539;28;20049;-72
2021/11/02 13:25:37;;;;;;;1.23;0.63;;;23.70;53.40;;;;;;5197356;28;20609;-72
2021/11/02 13:28:10;;;;;;;3.67;0.60;;;23.60;53.30;;;;;;5197494;28;20048;-71
2021/11/02 13:30:46;;;;;;;14.00;1.23;;;23.60;53.40;;;;;;5210689;28;20060;-71
2021/11/02 13:33:23;;;;;;;2.35;0.80;;;23.60;53.30;;;;;;5196119;28;20052;-72
2021/11/02 13:36:01;;;;;;;2.63;0.70;;;23.70;53.30;;;;;;5197770;28;20426;-72
2021/11/02 13:38:38;;;;;;;1.85;0.68;;;23.70;53.40;;;;;;5202796;28;20052;-71
2021/11/02 13:41:23;;;;;;;4.22;0.80;;;23.60;53.20;;;;;;5200673;28;20060;-71
2021/11/02 13:44:05;;;;;;;3.97;0.75;;;23.60;53.00;;;;;;5198388;28;20032;-72
2021/11/02 13:46:40;;;;;;;4.50;0.63;;;23.60;53.00;;;;;;5217100;28;20421;-71
2021/11/02 13:49:14;;;;;;;4.05;0.80;;;23.60;53.00;;;;;;5194600;28;20041;-70
2021/11/02 13:51:49;;;;;;;4.45;0.70;;;23.60;53.00;;;;;;5197409;28;20045;-70
2021/11/02 13:54:22;;;;;;;3.00;1.10;;;23.60;53.10;;;;;;5196249;28;20049;-71
2021/11/02 13:56:55;;;;;;;2.38;1.23;;;23.80;53.10;;;;;;5213034;28;20044;-70
2021/11/02 13:59:27;;;;;;;4.22;0.80;;;23.90;52.60;;;;;;5202978;28;20045;-72
2021/11/02 14:02:00;;;;;;;2.97;0.90;;;24.00;51.90;;;;;;5202469;28;20388;-71
2021/11/02 14:04:36;;;;;;;2.30;0.65;;;24.10;51.60;;;;;;5199439;28;20165;-71
2021/11/02 14:07:16;;;;;;;1.30;0.52;;;24.20;51.20;;;;;;5199310;28;20049;-72
2021/11/02 14:10:01;;;;;;;2.28;0.57;;;24.30;51.00;;;;;;5199084;28;20421;-72
2021/11/02 14:12:50;;;;;;;3.33;0.77;;;24.40;50.80;;;;;;5202868;28;20497;-71
2021/11/02 14:15:31;;;;;;;4.65;1.00;;;24.50;50.40;;;;;;5194283;28;20048;-71
2021/11/02 14:18:10;;;;;;;3.40;0.70;;;24.60;50.30;;;;;;5198086;28;20702;-71
2021/11/02 14:20:50;;;;;;;2.72;0.30;;;24.60;50.10;;;;;;5200391;28;20493;-71
2021/11/02 14:23:46;;;;;;;2.33;0.73;;;24.60;50.20;;;;;;5206183;28;20044;-69
2021/11/02 14:26:35;;;;;;;2.13;0.55;;;24.60;50.00;;;;;;5190006;28;20049;-69
2021/11/02 14:29:10;;;;;;;1.88;0.70;;;24.60;50.10;;;;;;5190781;28;20052;-70
2021/11/02 14:31:46;;;;;;;1.48;0.68;;;24.60;50.10;;;;;;5187124;28;20053;-69
2021/11/02 14:34:28;;;;;;;2.50;0.70;;;24.60;50.10;;;;;;5195213;28;20615;-70
2021/11/02 14:37:09;;;;;;;1.55;0.50;;;24.50;50.20;;;;;;5195675;28;21180;-69
2021/11/02 14:40:02;;;;;;;3.90;0.75;;;24.50;50.40;;;;;;5195718;28;20041;-69
2021/11/02 14:42:46;;;;;;;7.00;0.63;;;24.40;50.60;;;;;;5200359;28;20059;-70
2021/11/02 14:45:37;;;;;;;4.18;0.55;;;24.40;50.80;;;;;;5184766;28;20052;-70
2021/11/02 14:48:35;;;;;;;4.97;1.50;;;24.40;51.00;;;;;;5194142;28;20048;-70
2021/11/02 14:51:25;;;;;;;6.22;0.90;;;24.30;51.00;;;;;;5181570;28;20819;-69
2021/11/02 14:54:20;;;;;;;3.78;0.80;;;24.20;51.20;;;;;;5172384;28;20044;-68
2021/11/02 14:57:18;;;;;;;7.40;0.73;;;24.20;51.10;;;;;;5189998;28;20045;-69
2021/11/02 14:59:55;;;;;;;4.30;0.60;;;24.20;51.30;;;;;;5176865;28;20045;-68
2021/11/02 15:02:32;;;;;;;9.60;0.93;;;24.10;51.40;;;;;;5194749;28;20049;-69
2021/11/02 15:05:10;;;;;;;6.13;0.85;;;24.10;51.50;;;;;;5197748;28;20329;-68
2021/11/02 15:07:45;;;;;;;4.97;1.33;;;24.10;51.60;;;;;;5194528;28;20978;-71
2021/11/02 15:10:19;;;;;;;6.13;0.68;;;24.10;51.70;;;;;;5202318;28;20049;-70
2021/11/02 15:12:52;;;;;;;8.48;0.65;;;24.00;51.70;;;;;;5176922;28;20524;-69
2021/11/02 15:15:28;;;;;;;3.42;0.82;;;24.00;51.60;;;;;;5185799;28;20047;-69
2021/11/02 15:18:09;;;;;;;9.43;1.13;;;24.00;51.50;;;;;;5203128;28;20053;-69
2021/11/02 15:20:42;;;;;;;2.72;0.80;;;24.00;51.50;;;;;;5194360;28;20059;-68
2021/11/02 15:23:16;;;;;;;2.37;1.00;;;23.90;51.40;;;;;;5188450;28;20059;-69
2021/11/02 15:25:53;;;;;;;;;;;23.90;51.40;;;;;;5194743;28;20067;-67
2021/11/02 15:28:26;;;;;;;6.20;1.30;;;23.90;51.50;;;;;;5205050;28;19924;-68
2021/11/02 15:31:05;;;;;;;4.07;0.85;;;23.90;51.60;;;;;;5195091;28;20063;-68
2021/11/02 15:33:41;;;;;;;9.18;1.27;;;23.80;51.70;;;;;;5197839;28;20060;-68
2021/11/02 15:36:22;;;;;;;5.25;0.90;;;23.80;51.70;;;;;;5218835;28;20063;-68
2021/11/02 15:39:00;;;;;;;2.53;1.27;;;23.80;51.60;;;;;;5203468;28;20048;-68
2021/11/02 15:41:33;;;;;;;10.43;0.98;;;23.80;51.60;;;;;;5209035;28;20060;-68
2021/11/02 15:44:09;;;;;;;5.00;0.88;;;23.80;51.60;;;;;;5207314;28;20056;-68
2021/11/02 15:46:42;;;;;;;6.57;1.25;;;23.80;51.70;;;;;;5219120;28;20052;-68
2021/11/02 15:49:14;;;;;;;7.15;0.90;;;23.80;51.80;;;;;;5204490;28;21083;-68
2021/11/02 15:51:58;;;;;;;6.55;1.45;;;23.70;51.80;;;;;;5191381;28;20052;-67
2021/11/02 15:54:31;;;;;;;12.23;0.98;;;23.70;51.90;;;;;;5202040;28;20059;-68
2021/11/02 15:57:10;;;;;;;1.25;0.60;;;23.70;52.00;;;;;;5198030;28;20511;-68
2021/11/02 15:59:43;;;;;;;3.95;1.08;;;23.70;52.10;;;;;;5199796;28;20037;-69
2021/11/02 16:02:34;;;;;;;5.88;1.05;;;23.70;52.20;;;;;;5204629;28;20079;-69
2021/11/02 16:05:09;;;;;;;9.20;0.80;;;23.70;52.20;;;;;;5206811;28;20075;-68
2021/11/02 16:07:42;;;;;;;2.97;0.80;;;23.60;52.30;;;;;;5204389;28;20118;-68
2021/11/02 16:10:22;;;;;;;6.20;0.80;;;23.60;52.40;;;;;;5208576;28;20070;-68
2021/11/02 16:12:55;;;;;;;3.22;1.05;;;23.60;52.40;;;;;;5209149;28;20052;-68
2021/11/02 16:15:31;;;;;;;5.10;0.60;;;23.60;52.50;;;;;;5213581;28;20044;-68
2021/11/02 16:18:13;;;;;;;5.15;1.00;;;23.60;52.50;;;;;;5215877;28;20040;-68
2021/11/02 16:20:46;;;;;;;4.72;0.88;;;23.60;52.60;;;;;;5204815;28;20052;-69
2021/11/02 16:23:23;;;;;;;2.30;0.77;;;23.60;52.70;;;;;;5210521;28;20045;-68
2021/11/02 16:26:10;;;;;;;3.38;0.80;;;23.50;52.70;;;;;;5208013;28;20295;-68
2021/11/02 16:28:43;;;;;;;3.85;0.80;;;23.50;52.70;;;;;;5204092;28;20048;-68
2021/11/02 16:31:24;;;;;;;4.82;1.20;;;23.50;52.80;;;;;;5208830;28;20044;-68
2021/11/02 16:33:58;;;;;;;2.97;0.70;;;23.50;52.90;;;;;;5202458;28;20058;-68
2021/11/02 16:36:37;;;;;;;6.55;0.77;;;23.50;52.90;;;;;;5209586;28;20048;-68
2021/11/02 16:39:16;;;;;;;4.07;0.88;;;23.50;52.90;;;;;;5210310;28;20049;-69
2021/11/02 16:41:53;;;;;;;2.15;0.70;;;23.50;53.00;;;;;;5214077;28;20044;-68
2021/11/02 16:44:29;;;;;;;4.63;0.98;;;23.40;53.00;;;;;;5215518;28;20056;-67
2021/11/02 16:47:13;;;;;;;1.73;0.80;;;23.40;53.00;;;;;;5209194;28;20702;-68
2021/11/02 16:49:45;;;;;;;1.98;0.85;;;23.40;53.10;;;;;;5211299;28;20048;-68
2021/11/02 16:52:25;;;;;;;1.50;0.77;;;23.40;53.10;;;;;;5204646;28;20650;-68
2021/11/02 16:55:27;;;;;;;3.45;1.00;;;23.40;53.10;;;;;;5214147;28;20048;-68
2021/11/02 16:58:21;;;;;;;8.52;1.08;;;23.40;53.10;;;;;;5199423;28;20067;-68
2021/11/02 17:01:12;;;;;;;3.20;0.70;;;23.40;53.20;;;;;;5209629;28;20460;-68
2021/11/02 17:03:46;;;;;;;4.63;0.98;;;23.40;53.20;;;;;;5213659;28;20055;-68
2021/11/02 17:06:22;;;;;;;2.83;1.25;;;23.40;53.20;;;;;;5212544;28;20056;-68
2021/11/02 17:09:14;;;;;;;3.25;0.90;;;23.40;53.20;;;;;;5207994;28;20061;-68
2021/11/02 17:11:49;;;;;;;3.58;1.25;;;23.40;53.20;;;;;;5214602;28;20056;-67
2021/11/02 17:14:22;;;;;;;3.78;0.90;;;23.40;53.30;;;;;;5213633;28;20070;-68
2021/11/02 17:16:56;;;;;;;3.85;0.70;;;23.40;53.30;;;;;;5220129;28;20187;-69
2021/11/02 17:19:36;;;;;;;4.93;0.90;;;23.40;53.30;;;;;;5220887;28;20049;-69
2021/11/02 17:22:09;;;;;;;5.68;0.80;;;23.30;53.30;;;;;;5217282;28;20060;-68
2021/11/02 17:24:41;;;;;;;3.22;0.90;;;23.30;53.30;;;;;;5216256;28;20412;-69
2021/11/02 17:27:15;;;;;;;3.42;0.75;;;23.30;53.40;;;;;;5228298;28;20044;-69
2021/11/02 17:29:48;;;;;;;0.80;0.80;;;23.30;53.30;;;;;;5214420;28;20044;-68
2021/11/02 17:32:21;;;;;;;2.23;0.70;;;23.30;53.30;;;;;;5212138;28;20056;-68
2021/11/02 17:34:53;;;;;;;3.17;0.80;;;23.30;53.40;;;;;;5210467;28;20040;-69
2021/11/02 17:37:28;;;;;;;4.68;0.98;;;23.30;53.40;;;;;;5205549;28;20045;-69
2021/11/02 17:40:01;;;;;;;1.50;0.93;;;23.30;53.40;;;;;;5208764;28;20041;-69
2021/11/02 17:42:33;;;;;;;3.03;0.95;;;23.30;53.40;;;;;;5208263;28;20052;-68
2021/11/02 17:45:06;;;;;;;1.13;0.80;;;23.30;53.40;;;;;;5208075;28;20063;-68
2021/11/02 17:47:45;;;;;;;2.47;1.05;;;23.30;53.50;;;;;;5202993;28;20048;-69
2021/11/02 17:50:19;;;;;;;1.35;0.70;;;23.30;53.40;;;;;;5207599;28;20090;-67
2021/11/02 17:52:53;;;;;;;1.55;0.70;;;23.30;53.40;;;;;;5206167;28;20056;-68
2021/11/02 17:55:25;;;;;;;1.25;0.85;;;23.30;53.50;;;;;;5218403;28;20048;-68
2021/11/02 17:58:01;;;;;;;0.77;0.70;;;23.30;53.50;;;;;;5211081;28;20045;-69
2021/11/02 18:00:35;;;;;;;3.38;0.80;;;23.30;53.50;;;;;;5206818;28;20317;-69
2021/11/02 18:03:15;;;;;;;4.53;0.80;;;23.30;53.50;;;;;;5209737;28;20041;-69
2021/11/02 18:05:57;;;;;;;2.15;0.88;;;23.30;53.50;;;;;;5210199;28;20744;-69
2021/11/02 18:08:34;;;;;;;1.60;0.60;;;23.30;53.60;;;;;;5216415;28;20048;-67
2021/11/02 18:11:06;;;;;;;1.38;0.50;;;23.30;53.60;;;;;;5214321;28;20055;-68
2021/11/02 18:13:39;;;;;;;2.00;0.70;;;23.30;53.60;;;;;;5214090;28;20060;-69
2021/11/02 18:16:13;;;;;;;1.40;0.88;;;23.30;53.60;;;;;;5211046;28;20052;-69
2021/11/02 18:18:48;;;;;;;1.15;0.65;;;23.30;53.60;;;;;;5214169;28;20052;-69
2021/11/02 18:21:20;;;;;;;1.50;0.80;;;23.30;53.60;;;;;;5214515;28;20056;-68
2021/11/02 18:23:56;;;;;;;2.03;0.70;;;23.30;53.60;;;;;;5215034;28;20048;-69
2021/11/02 18:26:28;;;;;;;1.75;0.70;;;23.30;53.60;;;;;;5219389;28;20060;-69
2021/11/02 18:29:03;;;;;;;1.17;0.80;;;23.30;53.70;;;;;;5217179;28;20493;-69
2021/11/02 18:31:35;;;;;;;0.90;0.60;;;23.30;53.70;;;;;;5212218;28;20059;-69
2021/11/02 18:34:08;;;;;;;3.33;0.77;;;23.30;53.60;;;;;;5213847;28;20059;-68